Аэропорт
Владивосток (UHWW)

 UHWW / VVO
ЗЦ Хабаровск
Хабаровск (UHHH)
Хабаровск (UHHH)
 43.39900, 132.14800  / 46 ft

 UHWW 092030Z 05002MPS 9999 NSC M04/M04 Q1023 R25L/0///70 NOSIG RMK QFE766
 TAF UHWW 091400Z 0915/1015 VRB01MPS 3500 BR BKN012 TEMPO 0915/0924 0500 FZFG FM100000 36003MPS 9999 BKN030 TEMPO 1000/1009 35010MPS BKN020
UHWW_aip_1709, UHWW_j_0220
показать схемы
Название сценария Тип сценария Flight Simulator 9 Flight Simulator X Prepar3D v2 Prepar3D v3 Prepar3D v4 xPlane
UHWW - test version for the Fly-inn only платный(+демо)
UHWW, Vladivostok 1.0.0 X-Flight бесплатный
UHWW, Vladivostok 2017 v 1.2 бесплатный
uhww-scenery-fs9-1408 бесплатный
uhww-scenery-fsx-1304 бесплатный
uhww-scenery-p3d-1502 бесплатный
Vladivostok UHWW (P3Dv4.4+) бесплатный



2020 © VATRUS division (Privacy Policy)